createdAt,value
2023-04-28T00:01:40.923Z,55.96
2023-04-28T00:04:08.434Z,55.99
2023-04-28T00:06:35.479Z,56.02
2023-04-28T00:09:03.052Z,56.01
2023-04-28T00:11:29.715Z,55.91
2023-04-28T00:13:56.367Z,56.07
2023-04-28T00:16:23.632Z,56.03
2023-04-28T00:18:50.719Z,56.09
2023-04-28T00:21:17.400Z,56.19
2023-04-28T00:23:44.134Z,56.40
2023-04-28T00:26:11.701Z,56.40
2023-04-28T00:28:39.119Z,56.40
2023-04-28T00:31:15.126Z,56.56
2023-04-28T00:33:42.940Z,56.57
2023-04-28T00:36:10.428Z,56.58
2023-04-28T00:38:37.578Z,56.67
2023-04-28T00:41:04.406Z,56.84
2023-04-28T00:43:30.966Z,56.97
2023-04-28T00:45:57.646Z,56.96
2023-04-28T00:48:24.399Z,56.95
2023-04-28T00:50:51.513Z,57.03
2023-04-28T00:53:18.094Z,57.10
2023-04-28T00:55:46.404Z,57.09
2023-04-28T00:58:13.134Z,57.10
2023-04-28T01:00:39.913Z,57.00
2023-04-28T01:03:07.381Z,57.12
2023-04-28T01:05:36.058Z,57.10
2023-04-28T01:08:02.710Z,57.21
2023-04-28T01:10:29.245Z,57.24
2023-04-28T01:12:56.528Z,57.19
2023-04-28T01:15:23.528Z,57.30
2023-04-28T01:17:53.014Z,57.41
2023-04-28T01:20:20.105Z,57.48
2023-04-28T01:22:47.370Z,57.57
2023-04-28T01:25:14.301Z,57.62
2023-04-28T01:27:40.833Z,57.66
2023-04-28T01:30:08.628Z,57.59
2023-04-28T01:32:35.534Z,57.46
2023-04-28T01:35:03.057Z,57.46
2023-04-28T01:37:30.028Z,57.51
2023-04-28T01:39:56.695Z,57.44
2023-04-28T01:42:25.037Z,57.36
2023-04-28T01:44:52.567Z,57.43
2023-04-28T01:47:19.831Z,57.46
2023-04-28T01:49:47.724Z,57.51
2023-04-28T01:52:14.368Z,57.51
2023-04-28T01:54:41.117Z,57.48
2023-04-28T01:57:07.727Z,57.42
2023-04-28T01:59:34.564Z,57.38
2023-04-28T02:02:01.691Z,57.42
2023-04-28T02:04:28.554Z,57.50
2023-04-28T02:06:55.131Z,57.41
2023-04-28T02:09:21.722Z,57.53
2023-04-28T02:11:50.316Z,57.59
2023-04-28T02:14:17.125Z,57.53
2023-04-28T02:16:43.970Z,57.76
2023-04-28T02:19:11.633Z,57.97
2023-04-28T02:21:38.237Z,57.96
2023-04-28T02:24:07.553Z,57.87
2023-04-28T02:26:34.765Z,58.00
2023-04-28T02:29:03.638Z,57.98
2023-04-28T02:31:32.438Z,57.99
2023-04-28T02:33:59.207Z,58.06
2023-04-28T02:36:27.148Z,58.00
2023-04-28T02:38:53.743Z,57.92
2023-04-28T02:41:20.818Z,57.90
2023-04-28T02:43:47.542Z,57.91
2023-04-28T02:46:14.518Z,57.94
2023-04-28T02:48:42.009Z,57.93
2023-04-28T02:51:10.419Z,57.89
2023-04-28T02:53:37.460Z,57.94
2023-04-28T02:56:04.605Z,57.89
2023-04-28T02:58:32.295Z,57.84
2023-04-28T03:00:58.906Z,57.98
2023-04-28T03:03:25.611Z,57.87
2023-04-28T03:05:52.809Z,58.02
2023-04-28T03:08:20.300Z,58.01
2023-04-28T03:10:46.852Z,58.18
2023-04-28T03:13:13.455Z,58.24
2023-04-28T03:15:42.256Z,58.34
2023-04-28T03:18:09.236Z,58.53
2023-04-28T03:20:35.908Z,58.58
2023-04-28T03:23:03.091Z,58.70
2023-04-28T03:25:30.233Z,58.76
2023-04-28T03:27:57.281Z,58.81
2023-04-28T03:30:23.856Z,58.82
2023-04-28T03:32:50.507Z,59.00
2023-04-28T03:35:17.257Z,59.12
2023-04-28T03:37:44.033Z,59.10
2023-04-28T03:40:11.232Z,59.18
2023-04-28T03:42:58.726Z,59.37
2023-04-28T03:45:33.249Z,59.44
2023-04-28T03:48:00.299Z,59.43
2023-04-28T03:50:26.983Z,59.49
2023-04-28T03:52:56.342Z,59.62
2023-04-28T03:55:23.514Z,59.68
2023-04-28T03:57:51.711Z,59.76
2023-04-28T04:00:18.755Z,59.74
2023-04-28T04:02:46.353Z,59.86
2023-04-28T04:05:13.461Z,59.90
2023-04-28T04:07:41.018Z,60.01
2023-04-28T04:10:08.339Z,60.07
2023-04-28T04:12:36.056Z,60.13
2023-04-28T04:15:03.403Z,60.10
2023-04-28T04:17:30.969Z,60.19
2023-04-28T04:19:58.136Z,60.15
2023-04-28T04:22:26.779Z,60.16
2023-04-28T04:24:53.317Z,60.21
2023-04-28T04:27:20.128Z,60.18
2023-04-28T04:29:46.780Z,60.19
2023-04-28T04:32:14.405Z,60.38
2023-04-28T04:34:41.737Z,60.44
2023-04-28T04:37:09.723Z,60.40
2023-04-28T04:39:40.871Z,60.37
2023-04-28T04:42:23.461Z,60.39
2023-04-28T04:45:06.195Z,60.42
2023-04-28T04:47:32.907Z,60.42
2023-04-28T04:50:00.004Z,60.43
2023-04-28T04:52:26.745Z,60.42
2023-04-28T04:54:55.924Z,60.45
2023-04-28T04:57:23.818Z,60.36
2023-04-28T05:00:09.236Z,60.23
2023-04-28T05:02:36.703Z,60.26
2023-04-28T05:05:19.835Z,60.21
2023-04-28T05:07:54.235Z,60.14
2023-04-28T05:10:21.218Z,60.21
2023-04-28T05:12:49.142Z,60.30
2023-04-28T05:15:16.590Z,60.11
2023-04-28T05:17:49.429Z,60.09
2023-04-28T05:20:16.193Z,60.10
2023-04-28T05:22:42.777Z,59.93
2023-04-28T05:25:09.468Z,59.76
2023-04-28T05:27:38.834Z,59.68
2023-04-28T05:30:07.537Z,59.64
2023-04-28T05:32:35.391Z,59.54
2023-04-28T05:35:02.905Z,59.44
2023-04-28T05:37:29.543Z,59.37
2023-04-28T05:39:56.504Z,59.18
2023-04-28T05:42:23.078Z,59.33
2023-04-28T05:44:49.794Z,59.15
2023-04-28T05:47:16.364Z,59.06
2023-04-28T05:49:42.974Z,59.03
2023-04-28T05:52:09.575Z,58.97
2023-04-28T05:54:36.303Z,58.80
2023-04-28T05:57:03.035Z,58.69
2023-04-28T05:59:30.963Z,58.42
2023-04-28T06:01:57.819Z,58.22
2023-04-28T06:04:25.581Z,58.00
2023-04-28T06:06:52.883Z,57.93
2023-04-28T06:09:19.702Z,58.09
2023-04-28T06:11:46.770Z,57.94
2023-04-28T06:14:13.398Z,57.81
2023-04-28T06:16:42.240Z,57.69
2023-04-28T06:19:09.283Z,57.55
2023-04-28T06:21:36.401Z,57.45
2023-04-28T06:24:03.325Z,57.34
2023-04-28T06:26:30.483Z,57.19
2023-04-28T06:28:57.063Z,57.00
2023-04-28T06:31:23.854Z,56.79
2023-04-28T06:33:52.687Z,56.88
2023-04-28T06:36:19.312Z,56.63
2023-04-28T06:38:46.062Z,56.83
2023-04-28T06:41:12.850Z,56.22
2023-04-28T06:43:41.207Z,56.03
2023-04-28T06:46:11.147Z,55.80
2023-04-28T06:48:38.237Z,55.55
2023-04-28T06:51:05.532Z,55.25
2023-04-28T06:53:33.833Z,55.06
2023-04-28T06:56:01.746Z,54.89
2023-04-28T06:58:28.298Z,54.81
2023-04-28T07:00:55.126Z,54.66
2023-04-28T07:03:21.823Z,54.48
2023-04-28T07:05:48.508Z,54.16
2023-04-28T07:08:16.978Z,54.23
2023-04-28T07:10:43.534Z,54.13
2023-04-28T07:13:10.173Z,54.60
2023-04-28T07:15:37.444Z,54.43
2023-04-28T07:18:04.183Z,53.93
2023-04-28T07:20:30.798Z,53.69
2023-04-28T07:22:57.377Z,53.68
2023-04-28T07:25:24.011Z,53.60
2023-04-28T07:27:50.841Z,53.17
2023-04-28T07:30:27.270Z,53.21
2023-04-28T07:32:55.557Z,52.85
2023-04-28T07:35:22.410Z,52.86
2023-04-28T07:37:49.121Z,53.26
2023-04-28T07:40:16.884Z,53.41
2023-04-28T07:42:43.492Z,52.97
2023-04-28T07:45:10.760Z,53.29
2023-04-28T07:47:37.982Z,53.73
2023-04-28T07:50:06.101Z,53.71
2023-04-28T07:52:33.857Z,53.91
2023-04-28T07:55:01.792Z,53.05
2023-04-28T07:57:30.873Z,52.83
2023-04-28T07:59:57.464Z,52.97
2023-04-28T08:02:25.534Z,52.74
2023-04-28T08:04:52.556Z,51.64
2023-04-28T08:07:19.897Z,51.05
2023-04-28T08:09:47.590Z,50.74
2023-04-28T08:12:15.104Z,50.24
2023-04-28T08:14:42.089Z,50.02
2023-04-28T08:17:08.762Z,50.13
2023-04-28T08:19:35.376Z,50.59
2023-04-28T08:22:05.283Z,50.70
2023-04-28T08:24:35.773Z,49.64
2023-04-28T08:27:03.146Z,49.20
2023-04-28T08:29:31.503Z,49.33
2023-04-28T08:31:58.643Z,49.84
2023-04-28T08:34:25.160Z,49.29
2023-04-28T08:36:52.505Z,48.58
2023-04-28T08:39:23.020Z,49.05
2023-04-28T08:41:50.062Z,49.51
2023-04-28T08:44:16.996Z,50.14
2023-04-28T08:46:45.346Z,49.40
2023-04-28T08:49:18.188Z,48.29
2023-04-28T08:52:09.158Z,48.11
2023-04-28T08:54:37.438Z,48.44
2023-04-28T08:57:05.033Z,47.82
2023-04-28T08:59:32.287Z,47.62
2023-04-28T09:01:59.849Z,47.25
2023-04-28T09:04:26.821Z,47.51
2023-04-28T09:06:53.716Z,47.51
2023-04-28T09:09:21.047Z,47.13
2023-04-28T09:11:58.912Z,46.77
2023-04-28T09:14:27.567Z,46.73
2023-04-28T09:16:54.798Z,46.25
2023-04-28T09:19:21.620Z,46.17
2023-04-28T09:21:53.616Z,46.05
2023-04-28T09:24:33.448Z,46.04
2023-04-28T09:27:04.341Z,45.81
2023-04-28T09:29:31.719Z,45.40
2023-04-28T09:32:17.898Z,45.53
2023-04-28T09:34:51.157Z,45.17
2023-04-28T09:37:22.948Z,45.01
2023-04-28T09:39:51.165Z,44.83
2023-04-28T09:42:41.460Z,45.31
2023-04-28T09:45:13.002Z,45.18
2023-04-28T09:47:41.448Z,44.76
2023-04-28T09:50:12.002Z,44.45
2023-04-28T09:52:39.217Z,44.38
2023-04-28T09:55:10.426Z,44.51
2023-04-28T09:57:38.393Z,44.74
2023-04-28T10:00:08.474Z,44.56
2023-04-28T10:05:08.730Z,43.83
2023-04-28T10:07:36.227Z,43.91
2023-04-28T10:10:03.651Z,44.11
2023-04-28T10:12:31.944Z,44.95
2023-04-28T10:14:59.298Z,43.90
2023-04-28T10:17:27.565Z,43.85
2023-04-28T10:19:54.732Z,43.55
2023-04-28T10:22:52.900Z,43.77
2023-04-28T10:25:26.893Z,43.23
2023-04-28T10:27:54.014Z,43.41
2023-04-28T10:30:28.259Z,43.19
2023-04-28T10:33:08.730Z,42.86
2023-04-28T10:35:39.764Z,42.73
2023-04-28T10:38:13.463Z,42.35
2023-04-28T10:40:42.330Z,42.69
2023-04-28T10:43:12.516Z,42.23
2023-04-28T10:45:57.457Z,41.76
2023-04-28T10:48:34.303Z,42.11
2023-04-28T10:51:03.946Z,41.81
2023-04-28T10:53:46.190Z,41.98
2023-04-28T10:56:26.501Z,41.60
2023-04-28T10:59:24.444Z,41.76
2023-04-28T11:01:51.342Z,41.34
2023-04-28T11:04:18.044Z,41.50
2023-04-28T11:06:46.488Z,40.86
2023-04-28T11:09:18.951Z,40.73
2023-04-28T11:12:00.564Z,40.78
2023-04-28T11:14:35.217Z,40.93
2023-04-28T11:17:06.736Z,40.57
2023-04-28T11:19:36.037Z,40.75
2023-04-28T11:22:13.441Z,40.50
2023-04-28T11:24:40.284Z,40.24
2023-04-28T11:27:07.853Z,40.10
2023-04-28T11:29:39.263Z,39.87
2023-04-28T11:32:08.632Z,39.89
2023-04-28T11:34:36.724Z,39.63
2023-04-28T11:37:05.204Z,39.65
2023-04-28T11:39:34.768Z,39.48
2023-04-28T11:42:08.625Z,39.39
2023-04-28T11:44:35.357Z,38.90
2023-04-28T11:47:05.093Z,38.89
2023-04-28T11:49:42.288Z,39.00
2023-04-28T11:52:09.747Z,39.13
2023-04-28T11:54:37.714Z,38.86
2023-04-28T11:57:05.101Z,39.14
2023-04-28T11:59:35.394Z,38.38
2023-04-28T12:02:05.033Z,38.26
2023-04-28T12:04:36.064Z,38.40
2023-04-28T12:07:16.702Z,38.08
2023-04-28T12:09:46.218Z,38.09
2023-04-28T12:15:07.536Z,37.75
2023-04-28T12:17:37.136Z,37.78
2023-04-28T12:20:08.895Z,37.52
2023-04-28T12:22:47.518Z,37.35
2023-04-28T12:25:16.597Z,37.11
2023-04-28T12:28:00.969Z,37.08
2023-04-28T12:30:29.556Z,37.33
2023-04-28T12:32:56.909Z,37.18
2023-04-28T12:35:28.162Z,37.01
2023-04-28T12:37:56.237Z,36.99
2023-04-28T12:40:23.648Z,36.63
2023-04-28T12:42:50.503Z,36.68
2023-04-28T12:45:17.161Z,36.61
2023-04-28T12:47:43.726Z,36.53
2023-04-28T12:50:10.365Z,36.45
2023-04-28T12:52:36.986Z,36.48
2023-04-28T12:55:04.365Z,36.14
2023-04-28T12:57:31.010Z,36.27
2023-04-28T12:59:57.634Z,36.67
2023-04-28T13:02:24.438Z,36.47
2023-04-28T13:04:52.658Z,36.37
2023-04-28T13:07:19.385Z,36.00
2023-04-28T13:09:46.925Z,36.20
2023-04-28T13:12:14.016Z,35.87
2023-04-28T13:14:40.934Z,35.89
2023-04-28T13:17:08.515Z,35.86
2023-04-28T13:19:35.130Z,35.89
2023-04-28T13:22:04.547Z,35.68
2023-04-28T13:24:32.791Z,35.76
2023-04-28T13:26:59.727Z,36.02
2023-04-28T13:29:26.418Z,35.49
2023-04-28T13:31:53.080Z,35.46
2023-04-28T13:34:19.799Z,35.09
2023-04-28T13:36:50.112Z,35.03
2023-04-28T13:39:19.457Z,34.86
2023-04-28T13:41:46.137Z,35.23
2023-04-28T13:44:13.392Z,35.28
2023-04-28T13:46:39.988Z,35.05
2023-04-28T13:49:09.995Z,34.97
2023-04-28T13:51:36.637Z,34.93
2023-04-28T13:54:03.820Z,34.84
2023-04-28T13:56:34.090Z,34.63
2023-04-28T13:59:01.025Z,34.73
2023-04-28T14:01:28.265Z,34.70
2023-04-28T14:03:55.143Z,34.63
2023-04-28T14:06:22.412Z,34.49
2023-04-28T14:08:49.044Z,34.39
2023-04-28T14:11:15.678Z,34.28
2023-04-28T14:13:42.639Z,34.49
2023-04-28T14:16:09.265Z,34.25
2023-04-28T14:18:35.948Z,34.52
2023-04-28T14:21:07.259Z,34.50
2023-04-28T14:23:34.873Z,34.57
2023-04-28T14:26:01.502Z,34.53
2023-04-28T14:28:28.420Z,34.46
2023-04-28T14:30:55.099Z,34.79
2023-04-28T14:33:21.829Z,34.67
2023-04-28T14:35:48.366Z,34.58
2023-04-28T14:38:15.047Z,34.28
2023-04-28T14:40:42.518Z,34.36
2023-04-28T14:43:09.119Z,34.35
2023-04-28T14:45:37.496Z,34.37
2023-04-28T14:48:06.039Z,34.57
2023-04-28T14:50:32.665Z,34.49
2023-04-28T14:53:04.664Z,34.03
2023-04-28T14:55:31.321Z,34.10
2023-04-28T15:04:10.062Z,34.09
2023-04-28T15:06:38.191Z,34.11
2023-04-28T15:09:06.324Z,34.04
2023-04-28T15:11:34.275Z,34.17
2023-04-28T15:14:02.256Z,33.96
2023-04-28T15:16:30.268Z,33.97
2023-04-28T15:18:58.295Z,33.97
2023-04-28T15:21:26.324Z,34.00
2023-04-28T15:23:54.425Z,34.02
2023-04-28T15:26:23.786Z,33.95
2023-04-28T15:28:52.230Z,33.80
2023-04-28T15:31:21.438Z,33.91
2023-04-28T15:33:50.322Z,34.03
2023-04-28T15:36:21.366Z,34.34
2023-04-28T15:38:50.182Z,34.00
2023-04-28T15:41:18.544Z,34.08
2023-04-28T15:43:46.619Z,34.19
2023-04-28T15:46:17.667Z,34.21
2023-04-28T15:48:45.770Z,34.23
2023-04-28T15:51:13.733Z,34.47
2023-04-28T15:53:41.772Z,34.43
2023-04-28T15:56:09.808Z,34.40
2023-04-28T15:58:37.821Z,34.31
2023-04-28T16:01:05.828Z,34.28
2023-04-28T16:03:34.019Z,34.47
2023-04-28T16:06:03.591Z,34.43
2023-04-28T16:08:31.586Z,34.43
2023-04-28T16:10:59.629Z,34.33
2023-04-28T16:13:28.346Z,34.37
2023-04-28T16:15:56.335Z,34.63
2023-04-28T16:18:24.377Z,34.57
2023-04-28T16:20:53.852Z,34.63
2023-04-28T16:23:22.394Z,34.94
2023-04-28T16:25:51.014Z,35.10
2023-04-28T16:28:19.029Z,36.20
2023-04-28T16:30:47.632Z,35.95
2023-04-28T16:33:15.623Z,35.55
2023-04-28T16:35:43.646Z,35.48
2023-04-28T16:38:12.362Z,36.00
2023-04-28T16:40:40.877Z,36.74
2023-04-28T16:43:08.896Z,36.20
2023-04-28T16:45:36.909Z,36.19
2023-04-28T16:48:05.104Z,36.13
2023-04-28T16:50:33.241Z,36.73
2023-04-28T16:53:01.302Z,36.76
2023-04-28T16:55:30.191Z,36.30
2023-04-28T16:57:58.158Z,36.79
2023-04-28T17:00:26.127Z,36.78
2023-04-28T17:02:54.341Z,36.47
2023-04-28T17:05:22.614Z,36.60
2023-04-28T17:07:50.792Z,36.97
2023-04-28T17:10:18.844Z,36.86
2023-04-28T17:12:47.193Z,36.91
2023-04-28T17:15:17.374Z,37.42
2023-04-28T17:17:50.032Z,37.20
2023-04-28T17:20:20.246Z,37.25
2023-04-28T17:22:50.451Z,37.36
2023-04-28T17:25:19.020Z,37.44
2023-04-28T17:27:46.955Z,37.65
2023-04-28T17:30:15.258Z,37.81
2023-04-28T17:32:43.588Z,37.87
2023-04-28T17:35:12.066Z,38.06
2023-04-28T17:37:39.963Z,38.12
2023-04-28T17:40:08.680Z,38.30
2023-04-28T17:42:36.757Z,38.46
2023-04-28T17:45:07.430Z,38.51
2023-04-28T17:47:36.519Z,38.62
2023-04-28T17:50:06.612Z,38.77
2023-04-28T17:52:34.990Z,38.78
2023-04-28T17:55:03.386Z,38.96
2023-04-28T17:57:32.280Z,39.14
2023-04-28T18:00:00.270Z,39.28
2023-04-28T18:02:28.342Z,39.32
2023-04-28T18:04:56.534Z,39.40
2023-04-28T18:07:25.092Z,39.45
2023-04-28T18:09:53.300Z,39.67
2023-04-28T18:12:21.616Z,39.68
2023-04-28T18:14:50.563Z,39.76
2023-04-28T18:17:18.547Z,39.79
2023-04-28T18:19:51.474Z,40.03
2023-04-28T18:22:19.560Z,40.20
2023-04-28T18:24:48.745Z,40.28
2023-04-28T18:27:16.887Z,40.41
2023-04-28T18:29:45.087Z,40.52
2023-04-28T18:32:14.736Z,40.62
2023-04-28T18:34:43.735Z,40.72
2023-04-28T18:37:11.760Z,40.85
2023-04-28T18:39:39.828Z,40.95
2023-04-28T18:42:07.915Z,40.90
2023-04-28T18:44:36.980Z,41.13
2023-04-28T18:47:05.061Z,41.31
2023-04-28T18:49:33.441Z,41.36
2023-04-28T18:52:03.691Z,41.47
2023-04-28T18:54:32.951Z,41.69
2023-04-28T18:57:00.998Z,41.88
2023-04-28T18:59:29.510Z,41.86
2023-04-28T19:01:58.380Z,42.04
2023-04-28T19:04:26.704Z,42.18
2023-04-28T19:06:55.233Z,42.19
2023-04-28T19:09:23.327Z,42.43
2023-04-28T19:11:51.441Z,42.44
2023-04-28T19:14:19.428Z,42.42
2023-04-28T19:16:47.472Z,42.51
2023-04-28T19:19:15.712Z,42.68
2023-04-28T19:21:44.685Z,42.85
2023-04-28T19:24:12.957Z,42.93
2023-04-28T19:26:40.870Z,43.02
2023-04-28T19:29:09.182Z,43.05
2023-04-28T19:31:37.331Z,43.28
2023-04-28T19:34:05.638Z,43.27
2023-04-28T19:36:33.565Z,43.32
2023-04-28T19:39:01.594Z,43.31
2023-04-28T19:41:29.535Z,43.46
2023-04-28T19:43:57.496Z,43.62
2023-04-28T19:46:25.500Z,43.79
2023-04-28T19:48:53.664Z,43.95
2023-04-28T19:51:21.631Z,44.16
2023-04-28T19:53:51.067Z,44.26
2023-04-28T19:56:20.557Z,44.27
2023-04-28T19:58:48.835Z,44.50
2023-04-28T20:01:16.797Z,44.70
2023-04-28T20:03:45.025Z,44.72
2023-04-28T20:06:17.623Z,45.01
2023-04-28T20:08:45.917Z,45.02
2023-04-28T20:11:14.305Z,45.24
2023-04-28T20:13:42.365Z,45.34
2023-04-28T20:16:10.476Z,45.52
2023-04-28T20:18:38.490Z,45.56
2023-04-28T20:21:06.798Z,45.73
2023-04-28T20:23:34.708Z,45.84
2023-04-28T20:26:02.978Z,45.81
2023-04-28T20:28:31.094Z,45.94
2023-04-28T20:30:59.068Z,46.21
2023-04-28T20:33:27.162Z,46.35
2023-04-28T20:35:55.122Z,46.42
2023-04-28T20:38:23.117Z,46.44
2023-04-28T20:40:51.057Z,46.58
2023-04-28T20:43:18.988Z,46.67
2023-04-28T20:45:47.497Z,46.95
2023-04-28T20:48:15.423Z,46.96
2023-04-28T20:50:45.160Z,47.09
2023-04-28T20:53:13.112Z,47.17
2023-04-28T20:55:41.044Z,47.10
2023-04-28T20:58:09.616Z,47.23
2023-04-28T21:00:40.458Z,47.30
2023-04-28T21:03:15.089Z,47.35
2023-04-28T21:05:44.882Z,47.56
2023-04-28T21:08:13.280Z,47.61
2023-04-28T21:10:41.273Z,47.73
2023-04-28T21:13:09.841Z,47.87
2023-04-28T21:15:38.802Z,47.99
2023-04-28T21:18:07.197Z,48.06
2023-04-28T21:20:35.888Z,48.14
2023-04-28T21:23:04.389Z,48.13
2023-04-28T21:25:32.314Z,48.25
2023-04-28T21:28:01.885Z,48.38
2023-04-28T21:30:30.193Z,48.53
2023-04-28T21:32:58.210Z,48.65
2023-04-28T21:35:26.376Z,48.77
2023-04-28T21:37:54.374Z,48.78
2023-04-28T21:40:22.713Z,48.88
2023-04-28T21:42:51.140Z,48.89
2023-04-28T21:45:19.019Z,49.02
2023-04-28T21:47:47.360Z,49.25
2023-04-28T21:50:15.494Z,49.36
2023-04-28T21:52:43.436Z,49.46
2023-04-28T21:55:11.434Z,49.62
2023-04-28T21:57:39.356Z,49.75
2023-04-28T22:00:10.799Z,49.72
2023-04-28T22:02:41.746Z,49.84
2023-04-28T22:05:10.656Z,49.83
2023-04-28T22:07:38.856Z,50.20
2023-04-28T22:10:08.018Z,50.22
2023-04-28T22:12:36.066Z,50.25
2023-04-28T22:15:04.934Z,50.32
2023-04-28T22:17:32.942Z,50.24
2023-04-28T22:20:00.865Z,50.38
2023-04-28T22:22:30.196Z,50.55
2023-04-28T22:24:58.425Z,50.43
2023-04-28T22:27:27.104Z,50.67
2023-04-28T22:29:55.016Z,50.60
2023-04-28T22:32:23.280Z,50.59
2023-04-28T22:34:51.319Z,50.58
2023-04-28T22:37:19.233Z,50.64
2023-04-28T22:39:47.157Z,50.71
2023-04-28T22:42:15.107Z,50.77
2023-04-28T22:44:43.308Z,50.78
2023-04-28T22:47:11.230Z,50.91
2023-04-28T22:49:39.509Z,51.02
2023-04-28T22:52:07.512Z,51.04
2023-04-28T22:54:36.787Z,51.18
2023-04-28T22:57:04.675Z,51.18
2023-04-28T22:59:33.254Z,51.24
2023-04-28T23:02:02.341Z,51.25
2023-04-28T23:04:30.910Z,51.46
2023-04-28T23:06:58.980Z,51.47
2023-04-28T23:09:27.081Z,51.65
2023-04-28T23:11:55.069Z,51.63
2023-04-28T23:14:23.116Z,51.69
2023-04-28T23:16:51.064Z,51.76
2023-04-28T23:19:20.739Z,51.93
2023-04-28T23:21:48.867Z,51.91
2023-04-28T23:24:16.825Z,52.07
2023-04-28T23:26:44.758Z,52.13
2023-04-28T23:29:12.642Z,52.22
2023-04-28T23:31:40.615Z,52.24
2023-04-28T23:34:09.243Z,52.31
2023-04-28T23:36:37.839Z,52.31
2023-04-28T23:39:05.877Z,52.43
2023-04-28T23:41:34.249Z,52.47
2023-04-28T23:44:02.191Z,52.54
2023-04-28T23:46:30.998Z,52.61
2023-04-28T23:48:59.045Z,52.76
2023-04-28T23:51:27.101Z,52.69
2023-04-28T23:53:55.097Z,52.79
2023-04-28T23:56:23.035Z,52.84
2023-04-28T23:58:51.243Z,52.94
